sensor_id;sensor_type;location;lat;lon;timestamp;pressure;altitude;pressure_sealevel;temperature;humidity
47166;BME280;32930;51.112;13.762;2023-02-13T00:25:13;101374.09;;;7.70;100.00
47166;BME280;32930;51.112;13.762;2023-02-13T00:27:38;101376.41;;;7.65;100.00
47166;BME280;32930;51.112;13.762;2023-02-13T00:30:06;101385.03;;;7.49;100.00
47166;BME280;32930;51.112;13.762;2023-02-13T00:32:31;101379.44;;;7.38;100.00
47166;BME280;32930;51.112;13.762;2023-02-13T00:34:57;101382.28;;;7.45;100.00
47166;BME280;32930;51.112;13.762;2023-02-13T00:37:24;101376.78;;;7.55;100.00
47166;BME280;32930;51.112;13.762;2023-02-13T00:39:50;101385.47;;;7.40;100.00
47166;BME280;32930;51.112;13.762;2023-02-13T00:42:15;101387.72;;;7.52;100.00
47166;BME280;32930;51.112;13.762;2023-02-13T00:44:41;101386.50;;;7.44;100.00
47166;BME280;32930;51.112;13.762;2023-02-13T00:47:06;101392.41;;;7.43;100.00
47166;BME280;32930;51.112;13.762;2023-02-13T00:49:32;101390.66;;;7.42;100.00
47166;BME280;32930;51.112;13.762;2023-02-13T00:51:57;101394.66;;;7.37;100.00
47166;BME280;32930;51.112;13.762;2023-02-13T00:54:23;101381.91;;;7.37;100.00
47166;BME280;32930;51.112;13.762;2023-02-13T00:56:48;101382.13;;;7.41;100.00
47166;BME280;32930;51.112;13.762;2023-02-13T01:04:25;101393.66;;;7.51;100.00
47166;BME280;32930;51.112;13.762;2023-02-13T01:06:50;101389.75;;;7.59;100.00
47166;BME280;32930;51.112;13.762;2023-02-13T01:09:16;101388.91;;;7.41;100.00
47166;BME280;32930;51.112;13.762;2023-02-13T01:11:41;101391.63;;;7.44;100.00
47166;BME280;32930;51.112;13.762;2023-02-13T01:16:42;101392.34;;;7.41;100.00
47166;BME280;32930;51.112;13.762;2023-02-13T01:19:08;101390.88;;;7.47;100.00
47166;BME280;32930;51.112;13.762;2023-02-13T01:27:31;101392.41;;;7.43;100.00
47166;BME280;32930;51.112;13.762;2023-02-13T01:29:57;101377.81;;;7.58;100.00
47166;BME280;32930;51.112;13.762;2023-02-13T01:34:58;101377.75;;;7.57;100.00
47166;BME280;32930;51.112;13.762;2023-02-13T01:37:24;101373.13;;;7.50;100.00
47166;BME280;32930;51.112;13.762;2023-02-13T01:39:49;101371.69;;;7.73;100.00
47166;BME280;32930;51.112;13.762;2023-02-13T01:42:23;101377.91;;;7.60;100.00
47166;BME280;32930;51.112;13.762;2023-02-13T01:44:52;101366.50;;;7.53;100.00
47166;BME280;32930;51.112;13.762;2023-02-13T01:47:44;101356.50;;;7.76;100.00
47166;BME280;32930;51.112;13.762;2023-02-13T01:50:16;101366.06;;;7.62;100.00
47166;BME280;32930;51.112;13.762;2023-02-13T01:52:50;101361.81;;;7.62;100.00
47166;BME280;32930;51.112;13.762;2023-02-13T01:55:18;101365.13;;;7.60;100.00
47166;BME280;32930;51.112;13.762;2023-02-13T01:57:51;101364.28;;;7.79;100.00
47166;BME280;32930;51.112;13.762;2023-02-13T02:03:01;101368.84;;;7.49;100.00
47166;BME280;32930;51.112;13.762;2023-02-13T02:05:32;101359.78;;;7.55;100.00
47166;BME280;32930;51.112;13.762;2023-02-13T02:08:18;101359.50;;;7.67;100.00
47166;BME280;32930;51.112;13.762;2023-02-13T02:10:44;101354.34;;;7.48;100.00
47166;BME280;32930;51.112;13.762;2023-02-13T02:15:38;101348.75;;;7.56;100.00
47166;BME280;32930;51.112;13.762;2023-02-13T02:40:10;101343.94;;;7.62;100.00
47166;BME280;32930;51.112;13.762;2023-02-13T02:45:31;101337.63;;;7.54;100.00
47166;BME280;32930;51.112;13.762;2023-02-13T02:48:13;101334.41;;;7.58;100.00
47166;BME280;32930;51.112;13.762;2023-02-13T02:51:18;101341.66;;;7.69;100.00
47166;BME280;32930;51.112;13.762;2023-02-13T02:56:36;101343.00;;;7.60;100.00
47166;BME280;32930;51.112;13.762;2023-02-13T02:59:15;101354.63;;;7.54;100.00
47166;BME280;32930;51.112;13.762;2023-02-13T03:02:02;101354.63;;;7.54;100.00
47166;BME280;32930;51.112;13.762;2023-02-13T03:04:51;101342.94;;;7.59;100.00
47166;BME280;32930;51.112;13.762;2023-02-13T03:07:35;101358.91;;;7.55;100.00
47166;BME280;32930;51.112;13.762;2023-02-13T03:10:07;101352.34;;;7.60;100.00
47166;BME280;32930;51.112;13.762;2023-02-13T03:29:04;101362.34;;;7.55;100.00
47166;BME280;32930;51.112;13.762;2023-02-13T03:34:51;101352.13;;;7.55;100.00
47166;BME280;32930;51.112;13.762;2023-02-13T03:37:44;101361.91;;;7.64;100.00
47166;BME280;32930;51.112;13.762;2023-02-13T03:43:16;101360.88;;;7.60;100.00
47166;BME280;32930;51.112;13.762;2023-02-13T03:48:27;101358.91;;;7.55;100.00
47166;BME280;32930;51.112;13.762;2023-02-13T03:53:55;101370.81;;;7.54;100.00
47166;BME280;32930;51.112;13.762;2023-02-13T03:56:24;101359.66;;;7.52;100.00
47166;BME280;32930;51.112;13.762;2023-02-13T04:05:02;101356.88;;;7.48;100.00
47166;BME280;32930;51.112;13.762;2023-02-13T04:09:42;101361.53;;;7.56;100.00
47166;BME280;32930;51.112;13.762;2023-02-13T04:12:19;101374.44;;;7.59;100.00
47166;BME280;32930;51.112;13.762;2023-02-13T04:17:57;101367.97;;;7.48;100.00
47166;BME280;32930;51.112;13.762;2023-02-13T04:36:51;101362.88;;;7.48;100.00
47166;BME280;32930;51.112;13.762;2023-02-13T04:39:17;101358.91;;;7.55;100.00
47166;BME280;32930;51.112;13.762;2023-02-13T04:41:42;101362.34;;;7.55;100.00
47166;BME280;32930;51.112;13.762;2023-02-13T04:44:08;101354.00;;;7.59;100.00
47166;BME280;32930;51.112;13.762;2023-02-13T04:49:10;101357.22;;;7.55;100.00
47166;BME280;32930;51.112;13.762;2023-02-13T04:51:35;101352.06;;;7.36;100.00
47166;BME280;32930;51.112;13.762;2023-02-13T04:54:01;101357.03;;;7.33;100.00
47166;BME280;32930;51.112;13.762;2023-02-13T04:56:26;101343.38;;;7.50;100.00
47166;BME280;32930;51.112;13.762;2023-02-13T05:04:49;101352.50;;;7.45;100.00
47166;BME280;32930;51.112;13.762;2023-02-13T05:07:15;101352.13;;;7.37;100.00
47166;BME280;32930;51.112;13.762;2023-02-13T05:09:40;101359.06;;;7.58;100.00
47166;BME280;32930;51.112;13.762;2023-02-13T05:12:06;101351.13;;;7.34;100.00
47166;BME280;32930;51.112;13.762;2023-02-13T05:14:31;101353.19;;;7.41;100.00
47166;BME280;32930;51.112;13.762;2023-02-13T05:16:57;101360.88;;;7.60;100.00
47166;BME280;32930;51.112;13.762;2023-02-13T05:19:23;101358.06;;;7.54;100.00
47166;BME280;32930;51.112;13.762;2023-02-13T05:21:48;101361.63;;;7.40;100.00
47166;BME280;32930;51.112;13.762;2023-02-13T05:27:08;101364.59;;;7.31;100.00
47166;BME280;32930;51.112;13.762;2023-02-13T05:29:33;101364.03;;;7.37;100.00
47166;BME280;32930;51.112;13.762;2023-02-13T05:31:59;101357.19;;;7.54;100.00
47166;BME280;32930;51.112;13.762;2023-02-13T05:34:26;101351.66;;;7.45;100.00
47166;BME280;32930;51.112;13.762;2023-02-13T05:39:25;101364.16;;;7.40;100.00
47166;BME280;32930;51.112;13.762;2023-02-13T05:41:51;101349.81;;;7.42;100.00
47166;BME280;32930;51.112;13.762;2023-02-13T05:44:16;101357.38;;;7.40;100.00
47166;BME280;32930;51.112;13.762;2023-02-13T05:46:43;101352.94;;;7.54;100.00
47166;BME280;32930;51.112;13.762;2023-02-13T05:49:10;101358.34;;;7.42;100.00
47166;BME280;32930;51.112;13.762;2023-02-13T05:51:36;101362.88;;;7.48;100.00
47166;BME280;32930;51.112;13.762;2023-02-13T05:54:02;101363.00;;;7.51;100.00
47166;BME280;32930;51.112;13.762;2023-02-13T05:56:28;101364.25;;;7.41;100.00
47166;BME280;32930;51.112;13.762;2023-02-13T06:21:24;101368.34;;;7.38;100.00
47166;BME280;32930;51.112;13.762;2023-02-13T06:23:49;101372.28;;;7.49;100.00
47166;BME280;32930;51.112;13.762;2023-02-13T06:26:15;101382.63;;;7.34;100.00
47166;BME280;32930;51.112;13.762;2023-02-13T06:28:40;101369.28;;;7.40;100.00
47166;BME280;32930;51.112;13.762;2023-02-13T06:31:06;101378.03;;;7.27;100.00
47166;BME280;32930;51.112;13.762;2023-02-13T06:33:31;101375.06;;;7.36;100.00
47166;BME280;32930;51.112;13.762;2023-02-13T06:35:58;101372.84;;;7.43;100.00
47166;BME280;32930;51.112;13.762;2023-02-13T06:38:23;101385.16;;;7.34;100.00
47166;BME280;32930;51.112;13.762;2023-02-13T06:40:49;101388.34;;;7.29;100.00
47166;BME280;32930;51.112;13.762;2023-02-13T06:43:15;101388.31;;;7.47;100.00
47166;BME280;32930;51.112;13.762;2023-02-13T06:45:42;101387.72;;;7.34;100.00
47166;BME280;32930;51.112;13.762;2023-02-13T06:48:08;101389.13;;;7.28;100.00
47166;BME280;32930;51.112;13.762;2023-02-13T06:50:34;101384.69;;;7.41;100.00
47166;BME280;32930;51.112;13.762;2023-02-13T06:53:00;101387.81;;;7.36;100.00
47166;BME280;32930;51.112;13.762;2023-02-13T06:55:26;101393.81;;;7.54;100.00
47166;BME280;32930;51.112;13.762;2023-02-13T06:57:52;101394.97;;;7.43;100.00
47166;BME280;32930;51.112;13.762;2023-02-13T07:00:18;101403.00;;;7.51;100.00
47166;BME280;32930;51.112;13.762;2023-02-13T07:02:45;101405.16;;;7.43;100.00
47166;BME280;32930;51.112;13.762;2023-02-13T07:05:11;101412.03;;;7.26;100.00
47166;BME280;32930;51.112;13.762;2023-02-13T07:07:39;101414.22;;;7.54;100.00
47166;BME280;32930;51.112;13.762;2023-02-13T07:10:08;101409.66;;;7.47;100.00
47166;BME280;32930;51.112;13.762;2023-02-13T07:12:35;101413.00;;;7.28;100.00
47166;BME280;32930;51.112;13.762;2023-02-13T07:15:02;101408.25;;;7.36;100.00
47166;BME280;32930;51.112;13.762;2023-02-13T07:17:28;101408.81;;;7.30;100.00
47166;BME280;32930;51.112;13.762;2023-02-13T07:19:53;101411.75;;;7.38;100.00
47166;BME280;32930;51.112;13.762;2023-02-13T07:22:19;101406.72;;;7.39;100.00
47166;BME280;32930;51.112;13.762;2023-02-13T07:24:44;101415.00;;;7.53;100.00
47166;BME280;32930;51.112;13.762;2023-02-13T07:27:10;101412.97;;;7.46;100.00
47166;BME280;32930;51.112;13.762;2023-02-13T07:29:35;101409.53;;;7.28;100.00
47166;BME280;32930;51.112;13.762;2023-02-13T07:32:01;101413.91;;;7.30;100.00
47166;BME280;32930;51.112;13.762;2023-02-13T07:34:27;101412.09;;;7.28;100.00
47166;BME280;32930;51.112;13.762;2023-02-13T07:36:53;101409.06;;;7.35;100.00
47166;BME280;32930;51.112;13.762;2023-02-13T07:39:18;101422.09;;;7.59;100.00
47166;BME280;32930;51.112;13.762;2023-02-13T07:41:44;101413.06;;;7.48;100.00
47166;BME280;32930;51.112;13.762;2023-02-13T07:44:09;101415.53;;;7.46;100.00
47166;BME280;32930;51.112;13.762;2023-02-13T07:46:35;101410.50;;;7.65;100.00
47166;BME280;32930;51.112;13.762;2023-02-13T08:00:55;101419.88;;;7.31;100.00
47166;BME280;32930;51.112;13.762;2023-02-13T08:27:41;101432.19;;;7.38;100.00
47166;BME280;32930;51.112;13.762;2023-02-13T08:30:12;101443.91;;;7.52;100.00
47166;BME280;32930;51.112;13.762;2023-02-13T08:32:45;101435.53;;;7.55;100.00
47166;BME280;32930;51.112;13.762;2023-02-13T08:35:10;101444.22;;;7.58;100.00
47166;BME280;32930;51.112;13.762;2023-02-13T08:40:14;101440.91;;;7.43;100.00
47166;BME280;32930;51.112;13.762;2023-02-13T08:42:47;101443.72;;;7.48;100.00
47166;BME280;32930;51.112;13.762;2023-02-13T08:45:13;101436.97;;;7.50;100.00
47166;BME280;32930;51.112;13.762;2023-02-13T08:47:38;101440.47;;;7.34;100.00
47166;BME280;32930;51.112;13.762;2023-02-13T08:50:13;101444.13;;;7.75;100.00
47166;BME280;32930;51.112;13.762;2023-02-13T08:52:39;101444.94;;;7.56;100.00
47166;BME280;32930;51.112;13.762;2023-02-13T09:17:55;101463.09;;;7.62;100.00
47166;BME280;32930;51.112;13.762;2023-02-13T09:20:21;101465.16;;;7.87;100.00
47166;BME280;32930;51.112;13.762;2023-02-13T09:22:47;101460.19;;;7.72;100.00
47166;BME280;32930;51.112;13.762;2023-02-13T09:27:48;101465.50;;;7.59;100.00
47166;BME280;32930;51.112;13.762;2023-02-13T09:30:18;101469.09;;;7.80;100.00
47166;BME280;32930;51.112;13.762;2023-02-13T09:32:53;101455.28;;;7.59;100.00
47166;BME280;32930;51.112;13.762;2023-02-13T09:35:20;101449.69;;;7.66;100.00
47166;BME280;32930;51.112;13.762;2023-02-13T09:38:12;101458.00;;;7.80;100.00
47166;BME280;32930;51.112;13.762;2023-02-13T09:40:55;101462.00;;;7.75;100.00
47166;BME280;32930;51.112;13.762;2023-02-13T09:43:30;101454.28;;;7.73;100.00
47166;BME280;32930;51.112;13.762;2023-02-13T09:46:11;101455.88;;;7.71;100.00
47166;BME280;32930;51.112;13.762;2023-02-13T09:48:43;101467.16;;;8.12;100.00
47166;BME280;32930;51.112;13.762;2023-02-13T09:51:26;101471.25;;;8.08;100.00
47166;BME280;32930;51.112;13.762;2023-02-13T09:54:04;101469.38;;;8.04;100.00
47166;BME280;32930;51.112;13.762;2023-02-13T09:56:47;101470.31;;;8.06;100.00
47166;BME280;32930;51.112;13.762;2023-02-13T10:08:48;101490.59;;;8.39;100.00
47166;BME280;32930;51.112;13.762;2023-02-13T10:17:19;101491.75;;;8.28;100.00
47166;BME280;32930;51.112;13.762;2023-02-13T10:22:45;101499.06;;;8.38;100.00
47166;BME280;32930;51.112;13.762;2023-02-13T10:27:59;101485.09;;;8.49;100.00
47166;BME280;32930;51.112;13.762;2023-02-13T10:30:35;101495.38;;;8.51;100.00
47166;BME280;32930;51.112;13.762;2023-02-13T10:33:27;101485.97;;;8.50;100.00
47166;BME280;32930;51.112;13.762;2023-02-13T10:36:11;101480.38;;;8.58;100.00
47166;BME280;32930;51.112;13.762;2023-02-13T10:38:44;101475.53;;;8.45;100.00
47166;BME280;32930;51.112;13.762;2023-02-13T11:44:52;101454.25;;;8.46;100.00
47166;BME280;32930;51.112;13.762;2023-02-13T11:50:01;101456.69;;;8.43;100.00
47166;BME280;32930;51.112;13.762;2023-02-13T11:52:31;101446.63;;;8.48;100.00
47166;BME280;32930;51.112;13.762;2023-02-13T11:57:35;101451.25;;;8.55;99.91
47166;BME280;32930;51.112;13.762;2023-02-13T12:02:53;101449.81;;;8.62;100.00
47166;BME280;32930;51.112;13.762;2023-02-13T12:05:22;101452.06;;;8.73;98.67
47166;BME280;32930;51.112;13.762;2023-02-13T12:07:48;101450.97;;;8.68;98.88
47166;BME280;32930;51.112;13.762;2023-02-13T12:13:05;101450.88;;;8.67;97.13
47166;BME280;32930;51.112;13.762;2023-02-13T12:15:38;101444.75;;;8.63;97.55
47166;BME280;32930;51.112;13.762;2023-02-13T12:42:51;101429.22;;;8.58;98.01
47166;BME280;32930;51.112;13.762;2023-02-13T12:48:51;101420.41;;;8.71;97.03
47166;BME280;32930;51.112;13.762;2023-02-13T12:54:47;101421.22;;;8.70;97.49
47166;BME280;32930;51.112;13.762;2023-02-13T13:26:40;101428.72;;;8.87;90.68
47166;BME280;32930;51.112;13.762;2023-02-13T13:34:30;101428.78;;;8.88;90.31
47166;BME280;32930;51.112;13.762;2023-02-13T13:37:30;101430.06;;;8.78;91.09
47166;BME280;32930;51.112;13.762;2023-02-13T13:40:32;101422.00;;;8.69;92.39
47166;BME280;32930;51.112;13.762;2023-02-13T13:45:59;101438.97;;;8.87;89.16
47166;BME280;32930;51.112;13.762;2023-02-13T14:16:10;101433.59;;;8.61;92.36
47166;BME280;32930;51.112;13.762;2023-02-13T14:18:36;101430.81;;;8.56;93.10
47166;BME280;32930;51.112;13.762;2023-02-13T14:21:05;101431.91;;;8.62;91.80
47166;BME280;32930;51.112;13.762;2023-02-13T14:23:46;101426.19;;;8.48;91.48
47166;BME280;32930;51.112;13.762;2023-02-13T14:29:34;101418.19;;;8.22;92.60
47166;BME280;32930;51.112;13.762;2023-02-13T14:32:12;101421.38;;;8.36;92.75
47166;BME280;32930;51.112;13.762;2023-02-13T14:34:39;101420.69;;;8.39;91.79
47166;BME280;32930;51.112;13.762;2023-02-13T14:37:16;101414.50;;;8.35;92.81
47166;BME280;32930;51.112;13.762;2023-02-13T14:46:32;101404.44;;;8.38;93.42
47166;BME280;32930;51.112;13.762;2023-02-13T14:48:42;101407.38;;;8.28;93.34
47166;BME280;32930;51.112;13.762;2023-02-13T14:51:23;101396.41;;;8.30;92.36
47166;BME280;32930;51.112;13.762;2023-02-13T14:56:30;101399.84;;;8.31;93.09
47166;BME280;32930;51.112;13.762;2023-02-13T15:01:45;101399.25;;;8.36;91.98
47166;BME280;32930;51.112;13.762;2023-02-13T15:07:20;101385.84;;;8.23;93.20
47166;BME280;32930;51.112;13.762;2023-02-13T15:22:06;101385.09;;;8.25;94.02
47166;BME280;32930;51.112;13.762;2023-02-13T15:24:43;101379.53;;;8.15;93.89
47166;BME280;32930;51.112;13.762;2023-02-13T15:27:24;101375.81;;;8.08;93.87
47166;BME280;32930;51.112;13.762;2023-02-13T15:30:16;101362.44;;;8.13;94.49
47166;BME280;32930;51.112;13.762;2023-02-13T16:21:24;101372.25;;;7.85;96.16
47166;BME280;32930;51.112;13.762;2023-02-13T16:23:58;101372.47;;;7.72;96.13
47166;BME280;32930;51.112;13.762;2023-02-13T17:14:06;101362.91;;;7.68;97.09
47166;BME280;32930;51.112;13.762;2023-02-13T17:16:34;101358.47;;;7.63;96.87
47166;BME280;32930;51.112;13.762;2023-02-13T17:19:03;101364.38;;;7.62;97.48
47166;BME280;32930;51.112;13.762;2023-02-13T17:21:29;101361.38;;;7.71;96.91
47166;BME280;32930;51.112;13.762;2023-02-13T17:26:30;101357.66;;;7.64;97.30
47166;BME280;32930;51.112;13.762;2023-02-13T17:28:56;101349.31;;;7.69;97.62
47166;BME280;32930;51.112;13.762;2023-02-13T17:31:24;101348.25;;;7.63;97.49
47166;BME280;32930;51.112;13.762;2023-02-13T17:33:53;101346.50;;;7.62;97.62
47166;BME280;32930;51.112;13.762;2023-02-13T17:36:21;101349.81;;;7.60;97.24
47166;BME280;32930;51.112;13.762;2023-02-13T17:38:46;101352.03;;;7.91;100.00
47166;BME280;32930;51.112;13.762;2023-02-13T17:43:50;101373.84;;;7.65;96.85
47166;BME280;32930;51.112;13.762;2023-02-13T17:46:15;101364.50;;;7.65;97.13
47166;BME280;32930;51.112;13.762;2023-02-13T17:48:41;101360.22;;;7.64;96.70
47166;BME280;32930;51.112;13.762;2023-02-13T17:51:12;101343.59;;;7.55;97.71
47166;BME280;32930;51.112;13.762;2023-02-13T18:05:14;101361.13;;;7.47;96.17
47166;BME280;32930;51.112;13.762;2023-02-13T18:07:42;101351.59;;;7.62;96.61
47166;BME280;32930;51.112;13.762;2023-02-13T18:12:47;101373.50;;;7.57;96.83
47166;BME280;32930;51.112;13.762;2023-02-13T18:15:18;101367.41;;;7.54;96.80
47166;BME280;32930;51.112;13.762;2023-02-13T18:28:11;101368.13;;;7.51;97.33
47166;BME280;32930;51.112;13.762;2023-02-13T18:33:14;101355.06;;;7.45;97.73
47166;BME280;32930;51.112;13.762;2023-02-13T18:35:40;101362.72;;;7.45;97.80
47166;BME280;32930;51.112;13.762;2023-02-13T18:38:12;101357.69;;;7.47;98.12
47166;BME280;32930;51.112;13.762;2023-02-13T18:40:39;101356.81;;;7.46;97.44
47166;BME280;32930;51.112;13.762;2023-02-13T18:55:00;101346.78;;;7.69;95.39
47166;BME280;32930;51.112;13.762;2023-02-13T18:57:36;101349.88;;;7.43;96.48
47166;BME280;32930;51.112;13.762;2023-02-13T19:29:50;101349.53;;;7.36;98.29
47166;BME280;32930;51.112;13.762;2023-02-13T19:32:16;101361.47;;;7.37;97.86
47166;BME280;32930;51.112;13.762;2023-02-13T19:34:41;101363.69;;;7.29;97.72
47166;BME280;32930;51.112;13.762;2023-02-13T19:37:07;101365.66;;;7.35;97.77
47166;BME280;32930;51.112;13.762;2023-02-13T19:39:32;101371.91;;;7.41;97.93
47166;BME280;32930;51.112;13.762;2023-02-13T19:41:58;101374.19;;;7.35;98.34
47166;BME280;32930;51.112;13.762;2023-02-13T19:44:23;101371.69;;;7.37;98.41
47166;BME280;32930;51.112;13.762;2023-02-13T19:46:49;101378.41;;;7.35;97.63
47166;BME280;32930;51.112;13.762;2023-02-13T19:49:15;101381.41;;;7.44;96.63
47166;BME280;32930;51.112;13.762;2023-02-13T19:56:41;101384.31;;;7.34;95.96
47166;BME280;32930;51.112;13.762;2023-02-13T19:59:09;101379.34;;;7.37;96.54
47166;BME280;32930;51.112;13.762;2023-02-13T20:11:43;101373.38;;;7.36;95.70
47166;BME280;32930;51.112;13.762;2023-02-13T20:14:12;101370.91;;;7.38;95.03
47166;BME280;32930;51.112;13.762;2023-02-13T20:16:39;101375.06;;;7.36;95.54
47166;BME280;32930;51.112;13.762;2023-02-13T20:19:07;101380.97;;;7.35;95.53
47166;BME280;32930;51.112;13.762;2023-02-13T20:21:36;101376.78;;;7.37;95.20
47166;BME280;32930;51.112;13.762;2023-02-13T20:24:03;101379.88;;;7.30;95.89
47166;BME280;32930;51.112;13.762;2023-02-13T20:26:29;101387.66;;;7.33;95.67
47166;BME280;32930;51.112;13.762;2023-02-13T20:28:55;101392.97;;;7.37;95.15
47166;BME280;32930;51.112;13.762;2023-02-13T20:31:25;101394.19;;;7.44;93.95
47166;BME280;32930;51.112;13.762;2023-02-13T20:33:51;101393.06;;;7.39;94.50
47166;BME280;32930;51.112;13.762;2023-02-13T20:36:23;101382.84;;;7.39;95.06
47166;BME280;32930;51.112;13.762;2023-02-13T20:38:53;101387.66;;;7.33;95.47
47166;BME280;32930;51.112;13.762;2023-02-13T20:41:25;101382.00;;;7.38;95.42
47166;BME280;32930;51.112;13.762;2023-02-13T20:43:52;101387.88;;;7.37;94.84
47166;BME280;32930;51.112;13.762;2023-02-13T20:46:20;101392.78;;;7.33;94.87
47166;BME280;32930;51.112;13.762;2023-02-13T20:48:49;101391.03;;;7.32;94.49
47166;BME280;32930;51.112;13.762;2023-02-13T20:51:16;101388.53;;;7.33;95.40
47166;BME280;32930;51.112;13.762;2023-02-13T20:53:43;101382.41;;;7.30;94.72
47166;BME280;32930;51.112;13.762;2023-02-13T22:21:58;101407.75;;;7.09;92.72
47166;BME280;32930;51.112;13.762;2023-02-13T22:24:24;101409.09;;;7.18;93.27
47166;BME280;32930;51.112;13.762;2023-02-13T22:26:56;101418.13;;;7.12;91.65
47166;BME280;32930;51.112;13.762;2023-02-13T22:29:22;101415.09;;;7.19;90.88
47166;BME280;32930;51.112;13.762;2023-02-13T22:31:49;101408.38;;;7.21;92.99
47166;BME280;32930;51.112;13.762;2023-02-13T22:34:15;101401.38;;;7.17;93.10
47166;BME280;32930;51.112;13.762;2023-02-13T22:36:41;101410.13;;;7.22;93.68
47166;BME280;32930;51.112;13.762;2023-02-13T22:39:08;101414.34;;;7.22;92.79
47166;BME280;32930;51.112;13.762;2023-02-13T22:44:09;101422.09;;;7.23;92.31
47166;BME280;32930;51.112;13.762;2023-02-13T22:46:35;101424.69;;;7.25;90.78
47166;BME280;32930;51.112;13.762;2023-02-13T22:49:06;101426.53;;;7.27;91.49
47166;BME280;32930;51.112;13.762;2023-02-13T22:51:34;101426.63;;;7.29;90.54
47166;BME280;32930;51.112;13.762;2023-02-13T22:54:00;101428.94;;;7.24;91.04
47166;BME280;32930;51.112;13.762;2023-02-13T22:56:27;101427.84;;;7.19;92.13
47166;BME280;32930;51.112;13.762;2023-02-13T22:59:02;101434.75;;;7.22;90.86
47166;BME280;32930;51.112;13.762;2023-02-13T23:01:28;101437.31;;;7.22;90.96
47166;BME280;32930;51.112;13.762;2023-02-13T23:03:55;101441.78;;;7.26;90.69
47166;BME280;32930;51.112;13.762;2023-02-13T23:06:22;101433.41;;;7.28;91.22
47166;BME280;32930;51.112;13.762;2023-02-13T23:08:51;101438.13;;;7.20;92.22
47166;BME280;32930;51.112;13.762;2023-02-13T23:11:23;101438.50;;;7.28;91.87
47166;BME280;32930;51.112;13.762;2023-02-13T23:14:07;101441.34;;;7.16;92.24
47166;BME280;32930;51.112;13.762;2023-02-13T23:16:34;101441.47;;;7.19;92.35
47166;BME280;32930;51.112;13.762;2023-02-13T23:19:22;101445.88;;;7.22;92.50
47166;BME280;32930;51.112;13.762;2023-02-13T23:21:49;101440.66;;;7.20;90.35
47166;BME280;32930;51.112;13.762;2023-02-13T23:24:16;101447.78;;;7.44;89.62
47166;BME280;32930;51.112;13.762;2023-02-13T23:26:42;101451.69;;;7.19;91.30
47166;BME280;32930;51.112;13.762;2023-02-13T23:29:08;101452.63;;;7.22;91.29
47166;BME280;32930;51.112;13.762;2023-02-13T23:31:34;101451.69;;;7.19;90.89
47166;BME280;32930;51.112;13.762;2023-02-13T23:34:00;101440.00;;;7.25;91.98
47166;BME280;32930;51.112;13.762;2023-02-13T23:36:26;101444.97;;;7.22;92.26
47166;BME280;32930;51.112;13.762;2023-02-13T23:38:54;101443.94;;;7.18;91.58
47166;BME280;32930;51.112;13.762;2023-02-13T23:41:22;101442.66;;;7.26;91.01
47166;BME280;32930;51.112;13.762;2023-02-13T23:46:23;101434.91;;;7.25;91.53
47166;BME280;32930;51.112;13.762;2023-02-13T23:48:49;101436.22;;;7.16;92.13
47166;BME280;32930;51.112;13.762;2023-02-13T23:51:17;101426.78;;;7.15;92.65
47166;BME280;32930;51.112;13.762;2023-02-13T23:53:45;101433.44;;;7.12;92.47
47166;BME280;32930;51.112;13.762;2023-02-13T23:56:17;101429.75;;;7.23;91.87
47166;BME280;32930;51.112;13.762;2023-02-13T23:58:42;101428.94;;;7.24;91.79
